Weather at Wallops Flight Facility Airport

Public forecast

Using degrees Fahrenheit for public forecast. Weather courtesy of forecast.io.

Current aviation weather report (METAR) for Wallops Flight Facility Airport

Retrieved 2021/06/25 03:54 UTC (35 minutes ago):

KWAL 250354Z AUTO 34005KT 10SM FEW016 17/14 A3030 RMK AO2 SLP258 T01670144

Closest aviation forecast (TAF) to Wallops Flight Facility Airport

Closest forecast is Salisbury Ocean City Wicomico Regional Airport, 24.1 nm (44.7 km) N. Retrieved 2021-06-25 00:30 UTC (4 hours ago):

TAF KSBY 242329Z 2500/2524 07005KT P6SM SCT035 FM250500 00000KT P6SM SCT025 BKN040 FM250800 00000KT 4SM BR BKN015 FM251100 10005KT P6SM BKN025 FM251800 15008KT P6SM SCT025 BKN040